Time;durP1;ratioP1;P1;durP2;ratioP2;P2;SDS_P1;SDS_P2;PMS_P1;PMS_P2;Temp;Humidity;BMP_temperature;BMP_pressure;BME280_temperature;BME280_humidity;BME280_pressure;Samples;Min_cycle;Max_cycle;Signal;HPM_P1;HPM_P2
2023/06/08 00:00:58;;;;;;;;;;;;;;;14.16;100.00;95716.13;5076674;28;19924;-74
2023/06/08 00:03:26;;;;;;;;;;;;;;;14.19;100.00;95715.91;5078600;28;20263;-74
2023/06/08 00:05:53;;;;;;;;;;;;;;;14.29;100.00;95714.25;5078348;28;20306;-74
2023/06/08 00:08:19;;;;;;;;;;;;;;;14.35;100.00;95718.13;5081878;28;20394;-74
2023/06/08 00:10:46;;;;;;;;;;;;;;;14.36;100.00;95711.97;5068106;28;19932;-74
2023/06/08 00:13:13;;;;;;;;;;;;;;;14.41;100.00;95707.22;5085984;28;20337;-74
2023/06/08 00:15:41;;;;;;;;;;;;;;;14.43;100.00;95720.97;5078629;28;19931;-74
2023/06/08 00:18:08;;;;;;;;;;;;;;;14.48;100.00;95718.81;5087193;28;19924;-74
2023/06/08 00:20:34;;;;;;;;;;;;;;;14.43;100.00;95707.94;5070503;28;19925;-74
2023/06/08 00:23:03;;;;;;;;;;;;;;;14.38;100.00;95700.47;5077615;28;19936;-75
2023/06/08 00:25:29;;;;;;;;;;;;;;;14.34;100.00;95709.47;5080946;28;20010;-74
2023/06/08 00:27:56;;;;;;;;;;;;;;;14.25;100.00;95707.63;5082494;28;19978;-74
2023/06/08 00:30:22;;;;;;;;;;;;;;;14.27;100.00;95710.91;5076855;28;19958;-74
2023/06/08 00:32:50;;;;;;;;;;;;;;;14.07;100.00;95712.47;5077231;28;19973;-74
2023/06/08 00:35:16;;;;;;;;;;;;;;;13.96;100.00;95712.47;5075532;28;19928;-74
2023/06/08 00:37:43;;;;;;;;;;;;;;;13.84;100.00;95710.81;5081042;28;19932;-74
2023/06/08 00:40:10;;;;;;;;;;;;;;;13.90;100.00;95705.13;5077484;28;19998;-74
2023/06/08 00:42:36;;;;;;;;;;;;;;;13.99;100.00;95705.25;5081687;28;19924;-74
2023/06/08 00:45:03;;;;;;;;;;;;;;;14.09;100.00;95709.75;5069994;28;19936;-74
2023/06/08 00:47:29;;;;;;;;;;;;;;;14.17;100.00;95708.22;5076580;28;19973;-74
2023/06/08 00:49:57;;;;;;;;;;;;;;;14.20;100.00;95707.13;5083905;28;19925;-74
2023/06/08 00:52:25;;;;;;;;;;;;;;;14.25;100.00;95703.22;5076347;28;19931;-74
2023/06/08 00:54:51;;;;;;;;;;;;;;;14.35;100.00;95705.09;5085853;28;19978;-75
2023/06/08 00:57:19;;;;;;;;;;;;;;;14.40;100.00;95701.19;5081459;28;19945;-74
2023/06/08 00:59:49;;;;;;;;;;;;;;;14.43;100.00;95707.94;5086534;28;19971;-74
2023/06/08 01:02:15;;;;;;;;;;;;;;;14.43;100.00;95700.97;5079419;28;19924;-74
2023/06/08 01:04:42;;;;;;;;;;;;;;;14.44;100.00;95694.78;5067680;28;19928;-75
2023/06/08 01:07:14;;;;;;;;;;;;;;;14.46;100.00;95697.25;5071469;28;19932;-75
2023/06/08 01:09:44;;;;;;;;;;;;;;;14.34;100.00;95701.66;5068530;28;19971;-74
2023/06/08 01:12:16;;;;;;;;;;;;;;;14.24;100.00;95687.72;5081335;28;20340;-74
2023/06/08 01:14:46;;;;;;;;;;;;;;;14.04;100.00;95699.69;5075911;28;19935;-75
2023/06/08 01:17:17;;;;;;;;;;;;;;;13.86;100.00;95696.72;5082782;28;19939;-74
2023/06/08 01:19:54;;;;;;;;;;;;;;;13.76;100.00;95695.78;5075020;28;19925;-74
2023/06/08 01:22:28;;;;;;;;;;;;;;;13.71;100.00;95703.94;5071779;28;19977;-74
2023/06/08 01:24:59;;;;;;;;;;;;;;;13.70;100.00;95694.47;5073699;28;20437;-74
2023/06/08 01:27:29;;;;;;;;;;;;;;;13.67;100.00;95696.47;5074746;28;19939;-74
2023/06/08 01:29:55;;;;;;;;;;;;;;;13.51;100.00;95694.22;5075667;28;19975;-74
2023/06/08 01:32:21;;;;;;;;;;;;;;;13.51;100.00;95692.44;5077953;28;20302;-74
2023/06/08 01:34:48;;;;;;;;;;;;;;;13.51;100.00;95689.03;5071230;28;19929;-75
2023/06/08 01:37:18;;;;;;;;;;;;;;;13.53;100.00;95687.97;5078840;28;20538;-74
2023/06/08 01:39:47;;;;;;;;;;;;;;;13.52;100.00;95688.06;5071148;28;19935;-74
2023/06/08 01:42:18;;;;;;;;;;;;;;;13.44;100.00;95687.81;5072951;28;19924;-74
2023/06/08 01:44:46;;;;;;;;;;;;;;;13.58;100.00;95690.22;5070820;28;19928;-74
2023/06/08 01:47:14;;;;;;;;;;;;;;;13.68;100.00;95688.56;5078040;28;19924;-74
2023/06/08 01:49:40;;;;;;;;;;;;;;;13.68;100.00;95682.50;5085972;28;19928;-74
2023/06/08 01:52:08;;;;;;;;;;;;;;;13.64;100.00;95686.31;5054666;28;19928;-74
2023/06/08 01:54:34;;;;;;;;;;;;;;;13.60;100.00;95683.09;5078622;28;19931;-74
2023/06/08 01:57:00;;;;;;;;;;;;;;;13.88;100.00;95684.44;5071724;28;19959;-74
2023/06/08 01:59:28;;;;;;;;;;;;;;;13.37;100.00;95679.66;5075508;28;19924;-74
2023/06/08 02:01:54;;;;;;;;;;;;;;;13.08;100.00;95669.59;5074522;28;19970;-74
2023/06/08 02:04:20;;;;;;;;;;;;;;;12.98;100.00;95678.22;5061946;28;19978;-74
2023/06/08 02:06:47;;;;;;;;;;;;;;;13.04;100.00;95675.16;5065594;28;19928;-74
2023/06/08 02:09:13;;;;;;;;;;;;;;;13.10;100.00;95672.13;5076664;28;19933;-74
2023/06/08 02:11:39;;;;;;;;;;;;;;;13.17;100.00;95673.31;5076938;28;19924;-74
2023/06/08 02:14:06;;;;;;;;;;;;;;;12.97;100.00;95669.56;5082090;28;19931;-74
2023/06/08 02:16:35;;;;;;;;;;;;;;;12.89;100.00;95671.91;5066174;28;20052;-74
2023/06/08 02:19:01;;;;;;;;;;;;;;;12.89;100.00;95664.13;5069747;28;19970;-74
2023/06/08 02:21:27;;;;;;;;;;;;;;;12.91;100.00;95675.25;5067616;28;20018;-74
2023/06/08 02:23:54;;;;;;;;;;;;;;;12.91;100.00;95672.66;5073294;28;19925;-74
2023/06/08 02:26:22;;;;;;;;;;;;;;;12.93;100.00;95668.16;5064929;28;19924;-74
2023/06/08 02:28:48;;;;;;;;;;;;;;;12.93;100.00;95681.16;5082325;28;20357;-75
2023/06/08 02:31:14;;;;;;;;;;;;;;;12.95;100.00;95681.06;5065282;28;19954;-74
2023/06/08 02:33:42;;;;;;;;;;;;;;;13.01;100.00;95675.38;5074982;28;19932;-74
2023/06/08 02:36:09;;;;;;;;;;;;;;;13.06;100.00;95681.09;5074420;28;19931;-74
2023/06/08 02:38:35;;;;;;;;;;;;;;;13.07;100.00;95675.75;5072606;28;19978;-74
2023/06/08 02:41:01;;;;;;;;;;;;;;;13.11;100.00;95681.56;5081706;28;19931;-74
2023/06/08 02:43:28;;;;;;;;;;;;;;;13.21;100.00;95679.13;5070971;28;20379;-74
2023/06/08 02:45:54;;;;;;;;;;;;;;;13.24;100.00;95681.53;5061642;28;20341;-74
2023/06/08 02:48:20;;;;;;;;;;;;;;;13.24;100.00;95681.53;5082949;28;20386;-74
2023/06/08 02:50:48;;;;;;;;;;;;;;;13.18;100.00;95672.38;5077837;28;19932;-74
2023/06/08 02:53:14;;;;;;;;;;;;;;;13.15;100.00;95667.38;5073015;28;19928;-73
2023/06/08 02:55:40;;;;;;;;;;;;;;;13.14;100.00;95659.72;5074298;28;19925;-74
2023/06/08 02:58:09;;;;;;;;;;;;;;;13.07;100.00;95662.75;5076404;28;20531;-74
2023/06/08 03:00:35;;;;;;;;;;;;;;;13.10;100.00;95666.91;5080724;28;20293;-74
2023/06/08 03:03:01;;;;;;;;;;;;;;;12.68;100.00;95666.53;5075823;28;19924;-74
2023/06/08 03:05:29;;;;;;;;;;;;;;;12.42;100.00;95668.41;5061872;28;19929;-74
2023/06/08 03:07:59;;;;;;;;;;;;;;;12.17;100.00;95669.34;5082257;28;19925;-74
2023/06/08 03:10:25;;;;;;;;;;;;;;;12.29;100.00;95668.44;5076855;28;20003;-74
2023/06/08 03:12:51;;;;;;;;;;;;;;;12.36;100.00;95661.06;5078204;28;19925;-74
2023/06/08 03:15:22;;;;;;;;;;;;;;;12.51;100.00;95662.56;5067500;28;19928;-75
2023/06/08 03:17:48;;;;;;;;;;;;;;;12.37;100.00;95669.69;5085321;28;19924;-74
2023/06/08 03:20:17;;;;;;;;;;;;;;;12.32;100.00;95665.66;5082862;28;19974;-74
2023/06/08 03:22:45;;;;;;;;;;;;;;;12.23;100.00;95663.69;5065963;28;19935;-74
2023/06/08 03:25:15;;;;;;;;;;;;;;;12.10;100.00;95657.72;5067577;28;19924;-74
2023/06/08 03:27:41;;;;;;;;;;;;;;;12.10;100.00;95661.13;5063393;28;19925;-74
2023/06/08 03:30:08;;;;;;;;;;;;;;;12.09;100.00;95669.88;5080508;28;19951;-74
2023/06/08 03:32:34;;;;;;;;;;;;;;;12.05;100.00;95664.97;5066609;28;19982;-74
2023/06/08 03:35:01;;;;;;;;;;;;;;;12.13;100.00;95665.28;5079102;28;19929;-74
2023/06/08 03:37:27;;;;;;;;;;;;;;;12.23;100.00;95668.88;5078096;28;19928;-74
2023/06/08 03:39:53;;;;;;;;;;;;;;;12.39;100.00;95673.00;5079133;28;19929;-74
2023/06/08 03:42:21;;;;;;;;;;;;;;;12.47;100.00;95670.69;5074940;28;19928;-74
2023/06/08 03:44:47;;;;;;;;;;;;;;;12.58;100.00;95668.97;5077356;28;19928;-74
2023/06/08 03:47:14;;;;;;;;;;;;;;;12.65;100.00;95669.34;5080954;28;20303;-74
2023/06/08 03:49:40;;;;;;;;;;;;;;;12.54;100.00;95671.91;5078362;28;19924;-75
2023/06/08 03:52:07;;;;;;;;;;;;;;;12.57;100.00;95672.50;5079005;28;19924;-75
2023/06/08 03:54:33;;;;;;;;;;;;;;;12.77;100.00;95673.66;5079996;28;19932;-75
2023/06/08 03:56:59;;;;;;;;;;;;;;;12.90;100.00;95676.16;5077917;28;19924;-74
2023/06/08 03:59:27;;;;;;;;;;;;;;;12.94;100.00;95679.38;5071888;28;20007;-74
2023/06/08 04:01:53;;;;;;;;;;;;;;;12.84;100.00;95682.66;5078753;28;20015;-74
2023/06/08 04:04:20;;;;;;;;;;;;;;;12.82;100.00;95678.50;5075234;28;19925;-74
2023/06/08 04:06:46;;;;;;;;;;;;;;;12.95;100.00;95671.47;5072439;28;19930;-74
2023/06/08 04:09:12;;;;;;;;;;;;;;;12.79;100.00;95668.31;5077025;28;19933;-74
2023/06/08 04:11:39;;;;;;;;;;;;;;;12.79;100.00;95676.13;5078312;28;19931;-74
2023/06/08 04:14:05;;;;;;;;;;;;;;;12.98;100.00;95683.44;5083786;28;19924;-75
2023/06/08 04:16:33;;;;;;;;;;;;;;;13.28;100.00;95677.75;5076502;28;19970;-74
2023/06/08 04:18:59;;;;;;;;;;;;;;;13.03;100.00;95670.91;5082019;28;20418;-74
2023/06/08 04:21:26;;;;;;;;;;;;;;;13.23;100.00;95666.81;5065737;28;19931;-74
2023/06/08 04:23:52;;;;;;;;;;;;;;;13.34;100.00;95679.03;5081813;28;19936;-74
2023/06/08 04:26:19;;;;;;;;;;;;;;;13.35;100.00;95665.94;5067853;28;20387;-74
2023/06/08 04:28:48;;;;;;;;;;;;;;;13.05;100.00;95667.25;5078713;28;19951;-74
2023/06/08 04:31:14;;;;;;;;;;;;;;;12.71;100.00;95668.88;5078567;28;19928;-74
2023/06/08 04:33:42;;;;;;;;;;;;;;;12.79;100.00;95668.31;5083788;28;19955;-74
2023/06/08 04:36:08;;;;;;;;;;;;;;;12.84;100.00;95659.28;5071163;28;19946;-75
2023/06/08 04:38:35;;;;;;;;;;;;;;;12.92;100.00;95663.06;5063714;28;19994;-74
2023/06/08 04:41:01;;;;;;;;;;;;;;;12.74;100.00;95666.06;5080795;28;19924;-74
2023/06/08 04:43:31;;;;;;;;;;;;;;;12.83;100.00;95670.63;5071843;28;19928;-74
2023/06/08 04:45:59;;;;;;;;;;;;;;;12.92;100.00;95678.66;5075879;28;20082;-74
2023/06/08 04:48:26;;;;;;;;;;;;;;;12.99;100.00;95670.31;5079083;28;19931;-74
2023/06/08 04:50:53;;;;;;;;;;;;;;;12.98;100.00;95678.22;5073437;28;19925;-74
2023/06/08 04:53:21;;;;;;;;;;;;;;;13.06;100.00;95665.50;5083274;28;19923;-74
2023/06/08 04:55:48;;;;;;;;;;;;;;;12.90;100.00;95672.75;5076384;28;19929;-74
2023/06/08 04:58:14;;;;;;;;;;;;;;;13.08;100.00;95671.38;5086265;28;20324;-73
2023/06/08 05:00:40;;;;;;;;;;;;;;;13.01;100.00;95671.00;5075699;28;19924;-74
2023/06/08 05:03:07;;;;;;;;;;;;;;;12.76;100.00;95671.19;5078922;28;19928;-74
2023/06/08 05:05:34;;;;;;;;;;;;;;;12.88;100.00;95679.84;5070733;28;19924;-74
2023/06/08 05:08:01;;;;;;;;;;;;;;;12.97;100.00;95673.94;5083432;28;19924;-74
2023/06/08 05:10:27;;;;;;;;;;;;;;;13.01;100.00;95671.00;5077024;28;19981;-74
2023/06/08 05:12:56;;;;;;;;;;;;;;;12.83;100.00;95668.00;5085800;28;19964;-74
2023/06/08 05:15:22;;;;;;;;;;;;;;;12.97;100.00;95679.16;5070156;28;19928;-74
2023/06/08 05:17:48;;;;;;;;;;;;;;;12.83;100.00;95670.63;5081405;28;20016;-74
2023/06/08 05:20:15;;;;;;;;;;;;;;;12.65;100.00;95676.31;5069589;28;19931;-74
2023/06/08 05:22:41;;;;;;;;;;;;;;;12.49;100.00;95672.22;5069460;28;19924;-75
2023/06/08 05:25:09;;;;;;;;;;;;;;;12.88;100.00;95672.03;5066606;28;19928;-75
2023/06/08 05:27:37;;;;;;;;;;;;;;;12.88;100.00;95678.06;5062995;28;19924;-74
2023/06/08 05:30:03;;;;;;;;;;;;;;;13.27;100.00;95683.88;5078246;28;19976;-74
2023/06/08 05:32:30;;;;;;;;;;;;;;;13.09;100.00;95675.66;5068755;28;19928;-73
2023/06/08 05:34:56;;;;;;;;;;;;;;;13.06;100.00;95681.09;5071508;28;19925;-74
2023/06/08 05:37:22;;;;;;;;;;;;;;;13.10;100.00;95671.28;5063912;28;20410;-74
2023/06/08 05:39:49;;;;;;;;;;;;;;;13.42;100.00;95667.13;5061773;28;19933;-74
2023/06/08 05:42:16;;;;;;;;;;;;;;;13.54;100.00;95668.81;5067333;28;19980;-74
2023/06/08 05:44:43;;;;;;;;;;;;;;;13.86;100.00;95675.06;5077039;28;19928;-74
2023/06/08 05:47:09;;;;;;;;;;;;;;;14.14;100.00;95665.94;5077910;28;19974;-74
2023/06/08 05:49:35;;;;;;;;;;;;;;;14.33;100.00;95670.53;5068659;28;20328;-74
2023/06/08 05:52:01;;;;;;;;;;;;;;;14.54;100.00;95674.06;5078971;28;19925;-74
2023/06/08 05:54:28;;;;;;;;;;;;;;;14.43;100.00;95671.47;5065782;28;19991;-74
2023/06/08 05:56:54;;;;;;;;;;;;;;;14.59;100.00;95671.09;5076036;28;19931;-75
2023/06/08 05:59:22;;;;;;;;;;;;;;;14.75;100.00;95672.31;5070633;28;19970;-74
2023/06/08 06:01:49;;;;;;;;;;;;;;;14.91;100.00;95678.94;5081428;28;19928;-74
2023/06/08 06:04:15;;;;;;;;;;;;;;;15.21;100.00;95673.78;5068222;28;20022;-74
2023/06/08 06:06:41;;;;;;;;;;;;;;;15.26;100.00;95673.41;5064540;28;19924;-74
2023/06/08 06:09:08;;;;;;;;;;;;;;;15.25;100.00;95676.97;5076890;28;20398;-74
2023/06/08 06:11:34;;;;;;;;;;;;;;;15.20;100.00;95663.47;5071039;28;20110;-74
2023/06/08 06:14:00;;;;;;;;;;;;;;;15.41;100.00;95673.91;5079507;28;19974;-74
2023/06/08 06:16:28;;;;;;;;;;;;;;;15.51;100.00;95668.75;5063935;28;19924;-75
2023/06/08 06:18:54;;;;;;;;;;;;;;;15.86;100.00;95671.84;5071949;28;19935;-75
2023/06/08 06:21:20;;;;;;;;;;;;;;;16.29;100.00;95665.53;5060506;28;19933;-75
2023/06/08 06:23:47;;;;;;;;;;;;;;;16.24;100.00;95667.72;5079638;28;20295;-75
2023/06/08 06:26:13;;;;;;;;;;;;;;;16.51;100.00;95664.47;5074942;28;19931;-74
2023/06/08 06:28:40;;;;;;;;;;;;;;;16.85;100.00;95662.34;5080569;28;20394;-75
2023/06/08 06:31:06;;;;;;;;;;;;;;;17.17;100.00;95666.47;5075943;28;20011;-74
2023/06/08 06:33:34;;;;;;;;;;;;;;;16.98;100.00;95667.28;5081022;28;19935;-75
2023/06/08 06:36:00;;;;;;;;;;;;;;;17.14;100.00;95670.19;5077069;28;19925;-75
2023/06/08 06:38:27;;;;;;;;;;;;;;;17.28;100.00;95670.69;5071880;28;19929;-75
2023/06/08 06:40:53;;;;;;;;;;;;;;;17.30;100.00;95674.03;5075845;28;19952;-75
2023/06/08 06:43:20;;;;;;;;;;;;;;;17.57;100.00;95678.50;5065791;28;20296;-77
2023/06/08 06:45:50;;;;;;;;;;;;;;;17.66;100.00;95675.88;5070821;28;20283;-76
2023/06/08 06:48:17;;;;;;;;;;;;;;;17.55;100.00;95678.66;5073437;28;19924;-75
2023/06/08 06:50:45;;;;;;;;;;;;;;;17.62;100.00;95674.50;5076590;28;19972;-75
2023/06/08 06:53:11;;;;;;;;;;;;;;;17.66;100.00;95680.28;5065005;28;19924;-75
2023/06/08 06:55:38;;;;;;;;;;;;;;;17.93;100.00;95682.16;5065142;28;20466;-75
2023/06/08 06:58:04;;;;;;;;;;;;;;;18.00;100.00;95682.41;5084420;28;19931;-75
2023/06/08 07:00:36;;;;;;;;;;;;;;;18.11;100.00;95690.09;5077538;28;19932;-75
2023/06/08 07:03:03;;;;;;;;;;;;;;;17.95;100.00;95682.88;5079418;28;20011;-75
2023/06/08 07:05:29;;;;;;;;;;;;;;;18.05;100.00;95693.28;5080012;28;20018;-75
2023/06/08 07:07:57;;;;;;;;;;;;;;;18.16;100.00;95687.84;5078388;28;20031;-75
2023/06/08 07:10:23;;;;;;;;;;;;;;;18.44;100.00;95687.88;5080683;28;19970;-75
2023/06/08 07:12:50;;;;;;;;;;;;;;;18.87;100.00;95689.81;5079213;28;19966;-75
2023/06/08 07:15:17;;;;;;;;;;;;;;;19.32;100.00;95692.38;5084761;28;19931;-75
2023/06/08 07:17:44;;;;;;;;;;;;;;;19.55;100.00;95692.72;5082730;28;19928;-75
2023/06/08 07:20:10;;;;;;;;;;;;;;;19.67;100.00;95698.56;5066481;28;20360;-75
2023/06/08 07:22:37;;;;;;;;;;;;;;;19.74;100.00;95696.16;5078317;28;20279;-74
2023/06/08 07:25:05;;;;;;;;;;;;;;;19.72;100.00;95705.97;5061168;28;19980;-74
2023/06/08 07:27:32;;;;;;;;;;;;;;;19.52;100.00;95707.94;5080486;28;19947;-74
2023/06/08 07:29:58;;;;;;;;;;;;;;;19.10;100.00;95706.78;5073485;28;19928;-74
2023/06/08 07:32:26;;;;;;;;;;;;;;;18.86;100.00;95706.53;5082864;28;19924;-74
2023/06/08 07:34:52;;;;;;;;;;;;;;;18.91;100.00;95709.56;5076866;28;19929;-74
2023/06/08 07:37:18;;;;;;;;;;;;;;;18.89;100.00;95700.19;5073260;28;19924;-74
2023/06/08 07:39:45;;;;;;;;;;;;;;;19.18;100.00;95710.47;5066445;28;19928;-74
2023/06/08 07:42:12;;;;;;;;;;;;;;;19.50;100.00;95713.34;5080420;28;19928;-74
2023/06/08 07:44:38;;;;;;;;;;;;;;;19.71;100.00;95715.66;5068582;28;19925;-74
2023/06/08 07:47:05;;;;;;;;;;;;;;;19.98;100.00;95712.06;5082077;28;19935;-74
2023/06/08 07:49:31;;;;;;;;;;;;;;;20.47;100.00;95712.31;5073497;28;19925;-74
2023/06/08 07:51:58;;;;;;;;;;;;;;;20.82;100.00;95709.66;5083165;28;19943;-75
2023/06/08 07:54:25;;;;;;;;;;;;;;;20.97;100.00;95711.47;5081873;28;20364;-74
2023/06/08 07:56:51;;;;;;;;;;;;;;;21.02;100.00;95711.00;5080523;28;20386;-74
2023/06/08 07:59:19;;;;;;;;;;;;;;;20.76;100.00;95711.09;5083149;28;19935;-74
2023/06/08 08:01:45;;;;;;;;;;;;;;;21.03;100.00;95707.38;5084595;28;19931;-74
2023/06/08 08:04:11;;;;;;;;;;;;;;;21.22;100.00;95706.25;5078241;28;19924;-74
2023/06/08 08:06:38;;;;;;;;;;;;;;;21.36;100.00;95708.28;5077346;28;19935;-74
2023/06/08 08:09:04;;;;;;;;;;;;;;;21.91;100.00;95710.19;5077759;28;20010;-74
2023/06/08 08:11:30;;;;;;;;;;;;;;;22.01;99.80;95706.56;5073327;28;20276;-74
2023/06/08 08:13:56;;;;;;;;;;;;;;;22.34;97.62;95718.69;5083689;28;19935;-74
2023/06/08 08:16:24;;;;;;;;;;;;;;;22.45;90.03;95717.50;5070636;28;19932;-72
2023/06/08 08:18:50;;;;;;;;;;;;;;;22.42;75.66;95702.81;5075599;28;19978;-74
2023/06/08 08:21:17;;;;;;;;;;;;;;;22.53;81.31;95706.09;5061883;28;19932;-74
2023/06/08 08:23:43;;;;;;;;;;;;;;;22.60;81.88;95701.75;5076230;28;20365;-74
2023/06/08 08:26:09;;;;;;;;;;;;;;;22.60;84.90;95707.03;5058260;28;19929;-74
2023/06/08 08:28:41;;;;;;;;;;;;;;;22.32;85.85;95709.28;5068476;28;19928;-74
2023/06/08 08:31:07;;;;;;;;;;;;;;;22.54;87.90;95710.34;5076867;28;20378;-74
2023/06/08 08:33:34;;;;;;;;;;;;;;;22.59;83.65;95702.75;5079174;28;19931;-74
2023/06/08 08:36:01;;;;;;;;;;;;;;;22.44;85.61;95706.13;5071411;28;19970;-75
2023/06/08 08:38:27;;;;;;;;;;;;;;;22.15;81.65;95704.06;5071627;28;19932;-75
2023/06/08 08:40:55;;;;;;;;;;;;;;;22.10;84.73;95706.38;5076264;28;20318;-74
2023/06/08 08:43:24;;;;;;;;;;;;;;;22.22;89.37;95701.59;5065723;28;19924;-75
2023/06/08 08:45:51;;;;;;;;;;;;;;;22.23;92.74;95708.50;5068300;28;19975;-74
2023/06/08 08:48:19;;;;;;;;;;;;;;;22.01;90.10;95702.09;5079480;28;20059;-75
2023/06/08 08:50:53;;;;;;;;;;;;;;;21.96;89.16;95704.44;5071165;28;20418;-74
2023/06/08 08:53:20;;;;;;;;;;;;;;;21.89;90.69;95704.28;5064259;28;19931;-75
2023/06/08 08:55:48;;;;;;;;;;;;;;;21.81;90.61;95700.84;5077909;28;20359;-74
2023/06/08 08:58:18;;;;;;;;;;;;;;;21.55;88.53;95701.03;5074728;28;19930;-74
2023/06/08 09:00:48;;;;;;;;;;;;;;;21.40;87.66;95698.22;5079965;28;19929;-74
2023/06/08 09:03:15;;;;;;;;;;;;;;;21.49;87.06;95702.50;5077733;28;20010;-74
2023/06/08 09:05:43;;;;;;;;;;;;;;;21.59;87.10;95691.81;5076719;28;19977;-74
2023/06/08 09:08:11;;;;;;;;;;;;;;;21.84;88.54;95689.94;5071244;28;19924;-74
2023/06/08 09:10:37;;;;;;;;;;;;;;;22.30;80.85;95696.28;5071879;28;20370;-74
2023/06/08 09:13:03;;;;;;;;;;;;;;;22.73;77.73;95693.28;5071386;28;19932;-74
2023/06/08 09:15:30;;;;;;;;;;;;;;;23.20;82.00;95693.16;5081584;28;19924;-74
2023/06/08 09:17:58;;;;;;;;;;;;;;;22.81;71.07;95691.44;5071191;28;20349;-71
2023/06/08 09:20:27;;;;;;;;;;;;;;;23.07;76.30;95690.31;5075830;28;19932;-74
2023/06/08 09:22:54;;;;;;;;;;;;;;;23.57;73.14;95700.31;5068608;28;19924;-74
2023/06/08 09:25:36;;;;;;;;;;;;;;;23.74;62.94;95697.56;5071513;28;20006;-75
2023/06/08 09:28:14;;;;;;;;;;;;;;;23.16;60.32;95697.16;5067657;28;20333;-75
2023/06/08 09:30:41;;;;;;;;;;;;;;;22.91;59.77;95704.38;5070906;28;19931;-75
2023/06/08 09:33:19;;;;;;;;;;;;;;;22.70;58.58;95697.09;5084953;28;19932;-74
2023/06/08 09:35:45;;;;;;;;;;;;;;;22.54;64.43;95695.34;5067418;28;19925;-74
2023/06/08 09:38:18;;;;;;;;;;;;;;;22.39;62.46;95697.88;5074677;28;19925;-74
2023/06/08 09:40:46;;;;;;;;;;;;;;;22.09;62.56;95698.63;5072511;28;20023;-74
2023/06/08 09:43:12;;;;;;;;;;;;;;;21.95;62.16;95692.22;5077865;28;19935;-74
2023/06/08 09:45:43;;;;;;;;;;;;;;;21.95;62.11;95685.16;5076539;28;19928;-74
2023/06/08 09:48:10;;;;;;;;;;;;;;;21.84;65.77;95684.66;5070327;28;19950;-75
2023/06/08 09:50:37;;;;;;;;;;;;;;;21.64;67.46;95682.38;5075841;28;20174;-75
2023/06/08 09:53:05;;;;;;;;;;;;;;;21.75;68.85;95687.31;5076559;28;19925;-74
2023/06/08 09:55:32;;;;;;;;;;;;;;;21.92;69.50;95680.22;5072068;28;19931;-74
2023/06/08 09:58:01;;;;;;;;;;;;;;;21.85;72.12;95673.97;5072373;28;19924;-74
2023/06/08 10:00:29;;;;;;;;;;;;;;;21.87;74.11;95679.88;5078417;28;21548;-74
2023/06/08 10:02:59;;;;;;;;;;;;;;;21.93;72.72;95673.94;5070386;28;19929;-74
2023/06/08 10:05:29;;;;;;;;;;;;;;;22.26;69.17;95673.88;5066738;28;20055;-75
2023/06/08 10:07:56;;;;;;;;;;;;;;;22.70;69.78;95666.22;5067654;28;20341;-74
2023/06/08 10:10:22;;;;;;;;;;;;;;;23.37;75.32;95672.75;5065820;28;19932;-75
2023/06/08 10:12:49;;;;;;;;;;;;;;;23.64;62.86;95660.75;5078132;28;19924;-74
2023/06/08 10:15:17;;;;;;;;;;;;;;;23.79;55.03;95659.00;5079959;28;20075;-74
2023/06/08 10:17:43;;;;;;;;;;;;;;;23.80;61.92;95665.09;5079288;28;19934;-74
2023/06/08 10:20:12;;;;;;;;;;;;;;;23.99;61.74;95664.59;5069936;28;19970;-74
2023/06/08 10:22:40;;;;;;;;;;;;;;;24.39;55.04;95660.66;5074017;28;19970;-75
2023/06/08 10:25:07;;;;;;;;;;;;;;;23.86;48.72;95662.56;5073356;28;20015;-75
2023/06/08 10:27:34;;;;;;;;;;;;;;;23.73;49.73;95657.09;5083230;28;20406;-74
2023/06/08 10:30:03;;;;;;;;;;;;;;;23.94;50.54;95656.34;5076315;28;20345;-75
2023/06/08 10:32:31;;;;;;;;;;;;;;;24.30;51.38;95661.75;5075721;28;19925;-74
2023/06/08 10:34:58;;;;;;;;;;;;;;;24.06;51.73;95660.19;5077283;28;20636;-75
2023/06/08 10:37:28;;;;;;;;;;;;;;;24.33;49.54;95657.91;5075248;28;20331;-75
2023/06/08 10:39:55;;;;;;;;;;;;;;;24.55;53.60;95661.47;5070339;28;19924;-74
2023/06/08 10:42:21;;;;;;;;;;;;;;;25.07;52.28;95647.97;5078243;28;20382;-74
2023/06/08 10:44:53;;;;;;;;;;;;;;;25.03;47.79;95653.81;5079300;28;19936;-74
2023/06/08 10:47:19;;;;;;;;;;;;;;;24.95;49.69;95654.75;5081196;28;19978;-74
2023/06/08 10:49:54;;;;;;;;;;;;;;;25.16;51.86;95648.69;5083532;28;19924;-74
2023/06/08 10:52:22;;;;;;;;;;;;;;;25.27;50.83;95653.47;5071359;28;20311;-74
2023/06/08 10:54:51;;;;;;;;;;;;;;;25.45;49.54;95652.22;5082347;28;19986;-74
2023/06/08 10:57:32;;;;;;;;;;;;;;;25.21;45.14;95643.63;5079178;28;19935;-74
2023/06/08 10:59:59;;;;;;;;;;;;;;;25.61;52.87;95646.63;5084485;28;20359;-75
2023/06/08 11:02:28;;;;;;;;;;;;;;;25.69;46.75;95637.69;5076324;28;19931;-75
2023/06/08 11:04:58;;;;;;;;;;;;;;;25.55;48.96;95634.16;5071498;28;20395;-74
2023/06/08 11:07:25;;;;;;;;;;;;;;;25.85;45.43;95639.28;5070645;28;19924;-74
2023/06/08 11:09:51;;;;;;;;;;;;;;;26.13;48.74;95625.94;5070059;28;19925;-74
2023/06/08 11:12:20;;;;;;;;;;;;;;;26.24;48.54;95620.91;5078896;28;20356;-75
2023/06/08 11:14:47;;;;;;;;;;;;;;;26.14;43.66;95625.78;5074750;28;19931;-74
2023/06/08 11:17:13;;;;;;;;;;;;;;;26.11;48.28;95626.16;5080552;28;20014;-74
2023/06/08 11:19:40;;;;;;;;;;;;;;;26.26;55.63;95621.53;5076838;28;19924;-75
2023/06/08 11:22:07;;;;;;;;;;;;;;;26.31;51.89;95619.09;5062891;28;19994;-74
2023/06/08 11:24:34;;;;;;;;;;;;;;;26.09;41.80;95612.25;5067867;28;19932;-74
2023/06/08 11:27:00;;;;;;;;;;;;;;;26.12;41.44;95605.75;5076717;28;19924;-74
2023/06/08 11:29:27;;;;;;;;;;;;;;;26.28;45.96;95608.06;5077238;28;19979;-74
2023/06/08 11:31:53;;;;;;;;;;;;;;;25.99;43.78;95599.38;5074625;28;19997;-74
2023/06/08 11:34:20;;;;;;;;;;;;;;;25.33;44.28;95596.25;5076703;28;20016;-75
2023/06/08 11:36:48;;;;;;;;;;;;;;;24.96;43.68;95594.69;5083756;28;19966;-74
2023/06/08 11:39:16;;;;;;;;;;;;;;;24.65;46.40;95589.66;5079959;28;19924;-75
2023/06/08 11:41:46;;;;;;;;;;;;;;;24.31;46.47;95591.91;5078400;28;19929;-75
2023/06/08 11:44:13;;;;;;;;;;;;;;;23.69;48.31;95594.97;5069811;28;19997;-76
2023/06/08 11:46:39;;;;;;;;;;;;;;;23.66;46.25;95596.16;5088331;28;19924;-74
2023/06/08 11:49:10;;;;;;;;;;;;;;;23.61;46.78;95589.75;5083463;28;19928;-74
2023/06/08 11:51:45;;;;;;;;;;;;;;;23.77;48.49;95594.06;5088219;28;19930;-74
2023/06/08 11:54:11;;;;;;;;;;;;;;;23.79;46.31;95589.41;5072534;28;19931;-74
2023/06/08 11:56:39;;;;;;;;;;;;;;;23.79;46.27;95587.59;5087626;28;19932;-74
2023/06/08 11:59:05;;;;;;;;;;;;;;;23.84;44.77;95589.69;5080272;28;19931;-74
2023/06/08 12:01:31;;;;;;;;;;;;;;;23.82;48.81;95586.41;5085784;28;19924;-74
2023/06/08 12:03:58;;;;;;;;;;;;;;;23.91;45.00;95580.00;5073118;28;19932;-75
2023/06/08 12:06:25;;;;;;;;;;;;;;;23.91;48.86;95578.19;5079858;28;19969;-74
2023/06/08 12:08:52;;;;;;;;;;;;;;;23.81;46.93;95576.84;5076491;28;19932;-75
2023/06/08 12:11:19;;;;;;;;;;;;;;;23.68;47.14;95577.47;5075228;28;19985;-74
2023/06/08 12:13:46;;;;;;;;;;;;;;;23.64;44.19;95573.53;5075013;28;19950;-75
2023/06/08 12:16:13;;;;;;;;;;;;;;;23.46;46.27;95584.44;5079274;28;19935;-74
2023/06/08 12:18:39;;;;;;;;;;;;;;;23.60;45.52;95594.22;5075027;28;19935;-75
2023/06/08 12:21:07;;;;;;;;;;;;;;;23.32;51.16;95591.34;5078269;28;21374;-75
2023/06/08 12:23:33;;;;;;;;;;;;;;;23.11;59.21;95589.41;5077838;28;20442;-74
2023/06/08 12:25:59;;;;;;;;;;;;;;;22.88;58.45;95592.03;5081348;28;20413;-75
2023/06/08 12:28:26;;;;;;;;;;;;;;;22.34;57.37;95584.13;5071868;28;19931;-74
2023/06/08 12:30:54;;;;;;;;;;;;;;;21.95;58.86;95579.69;5069118;28;19971;-74
2023/06/08 12:33:21;;;;;;;;;;;;;;;21.71;61.19;95580.56;5076819;28;19929;-74
2023/06/08 12:35:49;;;;;;;;;;;;;;;21.66;59.62;95588.19;5071312;28;20300;-74
2023/06/08 12:38:16;;;;;;;;;;;;;;;21.72;59.00;95587.47;5073496;28;19929;-74
2023/06/08 12:40:47;;;;;;;;;;;;;;;21.51;63.30;95595.13;5072446;28;19951;-75